createdAt,value
2024-04-12T00:04:31.051Z,20.20
2024-04-12T00:09:34.164Z,16.50
2024-04-12T00:14:38.764Z,18.98
2024-04-12T00:19:41.884Z,19.50
2024-04-12T00:24:46.922Z,17.38
2024-04-12T00:29:50.271Z,17.83
2024-04-12T00:34:53.922Z,17.70
2024-04-12T00:39:57.717Z,18.88
2024-04-12T00:45:03.698Z,19.33
2024-04-12T00:50:08.482Z,16.98
2024-04-12T00:55:13.451Z,21.02
2024-04-12T01:00:30.196Z,17.77
2024-04-12T01:05:34.316Z,17.63
2024-04-12T01:10:38.424Z,19.50
2024-04-12T01:15:41.684Z,16.23
2024-04-12T01:20:45.361Z,20.40
2024-04-12T01:25:49.340Z,17.63
2024-04-12T01:31:01.303Z,19.77
2024-04-12T01:36:12.602Z,16.87
2024-04-12T01:41:15.961Z,14.05
2024-04-12T01:46:19.273Z,16.13
2024-04-12T01:51:26.591Z,13.00
2024-04-12T01:56:31.979Z,19.73
2024-04-12T02:01:36.087Z,17.97
2024-04-12T02:06:43.890Z,15.60
2024-04-12T02:11:48.064Z,17.52
2024-04-12T02:16:52.612Z,14.20
2024-04-12T02:21:55.737Z,19.02
2024-04-12T02:26:59.526Z,15.40
2024-04-12T02:32:02.722Z,13.90
2024-04-12T02:37:08.114Z,18.45
2024-04-12T02:42:19.121Z,16.17
2024-04-12T02:47:22.499Z,18.23
2024-04-12T02:52:26.537Z,14.57
2024-04-12T02:57:30.931Z,15.35
2024-04-12T03:02:34.752Z,15.93
2024-04-12T03:07:39.265Z,17.92
2024-04-12T03:12:44.674Z,16.90
2024-04-12T03:17:49.011Z,16.10
2024-04-12T03:22:53.994Z,17.02
2024-04-12T03:27:58.772Z,21.35
2024-04-12T03:33:04.558Z,17.60
2024-04-12T03:38:26.286Z,19.02
2024-04-12T03:43:29.898Z,15.17
2024-04-12T03:48:34.909Z,17.00
2024-04-12T03:53:38.468Z,17.92
2024-04-12T03:58:43.082Z,15.07
2024-04-12T04:03:50.970Z,16.27
2024-04-12T04:08:54.390Z,14.33
2024-04-12T04:13:57.685Z,16.92
2024-04-12T04:19:01.145Z,13.60
2024-04-12T04:24:10.310Z,15.70
2024-04-12T04:29:13.914Z,15.77
2024-04-12T04:34:21.821Z,19.50
2024-04-12T04:39:26.190Z,16.08
2024-04-12T04:44:31.325Z,13.02
2024-04-12T04:49:34.631Z,13.55
2024-04-12T04:54:40.875Z,21.75
2024-04-12T04:59:46.864Z,19.40
2024-04-12T05:04:51.983Z,19.98
2024-04-12T05:09:55.111Z,27.92
2024-04-12T05:14:58.182Z,22.77
2024-04-12T05:20:01.991Z,19.10
2024-04-12T05:25:06.768Z,27.27
2024-04-12T05:30:10.268Z,17.67
2024-04-12T05:35:16.906Z,17.95
2024-04-12T05:40:23.600Z,14.18
2024-04-12T05:45:28.604Z,17.83
2024-04-12T05:50:32.015Z,17.27
2024-04-12T05:55:35.109Z,17.15
2024-04-12T06:00:42.793Z,15.90
2024-04-12T06:05:57.038Z,12.25
2024-04-12T06:11:00.224Z,15.80
2024-04-12T06:16:03.893Z,14.07
2024-04-12T06:21:12.107Z,14.85
2024-04-12T06:26:16.262Z,14.18
2024-04-12T06:31:21.856Z,15.43
2024-04-12T06:36:26.416Z,13.75
2024-04-12T06:41:31.988Z,12.97
2024-04-12T06:46:37.666Z,13.73
2024-04-12T06:52:01.203Z,15.95
2024-04-12T06:57:06.127Z,14.55
2024-04-12T07:02:15.768Z,14.60
2024-04-12T07:07:24.291Z,14.27
2024-04-12T07:12:29.139Z,15.98
2024-04-12T07:17:33.067Z,17.33
2024-04-12T07:22:36.253Z,18.60
2024-04-12T07:27:42.987Z,14.35
2024-04-12T07:32:46.304Z,12.60
2024-04-12T07:37:49.474Z,12.13
2024-04-12T07:42:53.740Z,17.77
2024-04-12T07:48:13.466Z,15.02
2024-04-12T07:53:23.098Z,11.93
2024-04-12T07:58:36.078Z,14.77
2024-04-12T08:03:40.688Z,11.73
2024-04-12T08:08:47.091Z,10.80
2024-04-12T08:13:51.974Z,11.75
2024-04-12T08:18:59.140Z,9.70
2024-04-12T08:24:11.898Z,10.70
2024-04-12T08:29:30.507Z,12.60
2024-04-12T08:34:35.244Z,11.45
2024-04-12T08:39:44.565Z,11.88
2024-04-12T08:44:49.396Z,12.98
2024-04-12T08:50:05.213Z,8.00
2024-04-12T09:00:19.201Z,9.93
2024-04-12T09:05:26.663Z,11.45
2024-04-12T09:10:38.445Z,11.27
2024-04-12T09:15:43.998Z,8.00
2024-04-12T09:20:54.645Z,7.30
2024-04-12T09:25:59.543Z,10.57
2024-04-12T09:31:21.427Z,6.88
2024-04-12T09:36:58.073Z,9.30
2024-04-12T09:42:05.038Z,8.00
2024-04-12T09:47:19.337Z,7.63
2024-04-12T09:52:41.796Z,9.13
2024-04-12T09:58:06.150Z,14.02
2024-04-12T10:03:31.356Z,9.20
2024-04-12T10:08:53.241Z,8.03
2024-04-12T10:14:16.010Z,6.68
2024-04-12T10:19:37.682Z,7.32
2024-04-12T10:25:08.807Z,6.47
2024-04-12T10:30:30.937Z,7.40
2024-04-12T10:35:53.656Z,9.00
2024-04-12T10:40:59.718Z,7.57
2024-04-12T10:46:06.811Z,7.47
2024-04-12T10:51:14.185Z,9.02
2024-04-12T10:56:21.452Z,5.25
2024-04-12T11:01:25.255Z,9.30
2024-04-12T11:06:35.814Z,5.40
2024-04-12T11:11:40.234Z,6.15
2024-04-12T11:17:07.004Z,8.10
2024-04-12T11:22:31.017Z,6.38
2024-04-12T11:27:52.848Z,5.77
2024-04-12T11:32:57.393Z,7.43
2024-04-12T11:38:01.204Z,6.07
2024-04-12T11:43:08.521Z,8.00
2024-04-12T11:48:16.861Z,30.05
2024-04-12T11:53:21.869Z,8.10
2024-04-12T11:58:25.008Z,7.32
2024-04-12T12:03:28.268Z,7.13
2024-04-12T12:08:38.712Z,13.88
2024-04-12T12:13:43.971Z,26.67
2024-04-12T12:18:47.383Z,10.00
2024-04-12T12:23:51.779Z,10.25
2024-04-12T12:28:59.277Z,8.13
2024-04-12T12:34:06.670Z,23.15
2024-04-12T12:39:11.563Z,8.93
2024-04-12T12:44:19.869Z,6.13
2024-04-12T12:49:26.877Z,5.75
2024-04-12T12:54:30.927Z,9.15
2024-04-12T12:59:42.440Z,5.57
2024-04-12T13:04:49.653Z,6.60
2024-04-12T13:09:57.026Z,12.07
2024-04-12T13:15:00.560Z,7.78
2024-04-12T13:20:08.229Z,6.75
2024-04-12T13:25:15.351Z,7.18
2024-04-12T13:30:18.845Z,6.78
2024-04-12T13:35:22.888Z,7.80
2024-04-12T13:40:26.919Z,5.72
2024-04-12T13:45:49.025Z,7.32
2024-04-12T13:50:58.447Z,6.93
2024-04-12T13:56:21.777Z,8.98
2024-04-12T14:01:30.886Z,7.37
2024-04-12T14:06:36.483Z,6.20
2024-04-12T14:11:40.546Z,7.68
2024-04-12T14:16:43.827Z,8.77
2024-04-12T14:21:53.212Z,7.63
2024-04-12T14:26:56.725Z,8.43
2024-04-12T14:32:07.293Z,9.18
2024-04-12T14:37:15.420Z,8.10
2024-04-12T14:42:22.392Z,7.05
2024-04-12T14:47:27.338Z,8.35
2024-04-12T14:52:31.060Z,7.93
2024-04-12T14:57:34.586Z,7.22
2024-04-12T15:02:42.395Z,7.10
2024-04-12T15:08:04.146Z,11.30
2024-04-12T15:13:25.961Z,9.70
2024-04-12T15:18:47.970Z,5.87
2024-04-12T15:24:09.989Z,6.82
2024-04-12T15:29:31.862Z,7.40
2024-04-12T15:34:54.000Z,6.07
2024-04-12T15:40:16.054Z,5.85
2024-04-12T15:45:38.055Z,6.03
2024-04-12T15:50:45.339Z,8.15
2024-04-12T15:56:02.265Z,7.78
2024-04-12T16:01:24.413Z,10.20
2024-04-12T16:06:46.081Z,7.38
2024-04-12T16:11:49.358Z,6.77
2024-04-12T16:16:52.711Z,7.20
2024-04-12T16:21:55.953Z,6.47
2024-04-12T16:26:59.462Z,9.05
2024-04-12T16:32:03.750Z,7.03
2024-04-12T16:37:07.150Z,5.57
2024-04-12T16:42:10.664Z,7.95
2024-04-12T16:47:14.979Z,5.78
2024-04-12T16:52:18.809Z,6.95
2024-04-12T16:57:21.892Z,5.88
2024-04-12T17:02:25.166Z,6.93
2024-04-12T17:07:28.494Z,6.25
2024-04-12T17:12:31.719Z,7.18
2024-04-12T17:17:37.800Z,6.55
2024-04-12T17:22:41.597Z,7.95
2024-04-12T17:27:45.128Z,6.57
2024-04-12T17:32:48.838Z,7.15
2024-04-12T17:37:52.954Z,9.50
2024-04-12T17:42:56.106Z,8.52
2024-04-12T17:47:59.448Z,7.07
2024-04-12T17:53:03.047Z,9.67
2024-04-12T17:58:07.257Z,9.50
2024-04-12T18:03:10.604Z,13.68
2024-04-12T18:08:13.949Z,9.38
2024-04-12T18:13:17.191Z,9.50
2024-04-12T18:18:20.498Z,10.27
2024-04-12T18:23:23.935Z,11.27
2024-04-12T18:28:27.884Z,10.02
2024-04-12T18:33:33.452Z,12.23
2024-04-12T18:38:55.683Z,12.20
2024-04-12T18:44:18.009Z,10.30
2024-04-12T18:49:21.474Z,10.07
2024-04-12T18:54:25.438Z,12.88
2024-04-12T18:59:29.232Z,11.30
2024-04-12T19:04:32.649Z,12.63
2024-04-12T19:09:35.856Z,10.53
2024-04-12T19:14:40.254Z,9.55
2024-04-12T19:19:43.960Z,12.70
2024-04-12T19:24:47.739Z,9.48
2024-04-12T19:29:53.163Z,12.48
2024-04-12T19:34:56.776Z,11.83
2024-04-12T19:40:00.039Z,8.88
2024-04-12T19:45:03.611Z,9.95
2024-04-12T19:50:08.525Z,9.50
2024-04-12T19:55:13.017Z,9.70
2024-04-12T20:00:16.393Z,9.00
2024-04-12T20:05:19.653Z,9.43
2024-04-12T20:10:23.107Z,11.30
2024-04-12T20:15:31.646Z,11.13
2024-04-12T20:20:36.866Z,14.20
2024-04-12T20:25:40.541Z,12.73
2024-04-12T20:31:00.223Z,16.17
2024-04-12T20:36:19.824Z,14.90
2024-04-12T20:41:23.253Z,17.75
2024-04-12T20:46:26.722Z,13.80
2024-04-12T20:51:31.865Z,16.03
2024-04-12T20:56:35.204Z,16.58
2024-04-12T21:01:49.117Z,15.98
2024-04-12T21:06:54.359Z,14.95
2024-04-12T21:11:58.061Z,14.80
2024-04-12T21:17:02.719Z,16.53
2024-04-12T21:22:05.943Z,13.75
2024-04-12T21:27:09.163Z,14.05
2024-04-12T21:32:12.499Z,13.88
2024-04-12T21:37:15.595Z,12.70
2024-04-12T21:42:18.716Z,11.73
2024-04-12T21:47:21.873Z,13.68
2024-04-12T21:52:25.148Z,11.30
2024-04-12T21:57:28.492Z,12.25
2024-04-12T22:02:31.796Z,10.85
2024-04-12T22:07:34.920Z,10.20
2024-04-12T22:12:38.062Z,9.73
2024-04-12T22:17:41.276Z,9.52
2024-04-12T22:22:44.513Z,11.07
2024-04-12T22:27:47.642Z,10.40
2024-04-12T22:32:51.217Z,10.60
2024-04-12T22:37:54.401Z,9.10
2024-04-12T22:43:00.711Z,9.18
2024-04-12T22:48:04.264Z,12.55
2024-04-12T22:53:08.722Z,12.73
2024-04-12T22:58:14.950Z,11.83
2024-04-12T23:03:19.452Z,11.00
2024-04-12T23:08:22.873Z,9.63
2024-04-12T23:13:26.048Z,13.10
2024-04-12T23:18:29.239Z,10.00
2024-04-12T23:23:32.347Z,10.10
2024-04-12T23:28:35.640Z,13.52
2024-04-12T23:33:39.023Z,10.55
2024-04-12T23:38:42.174Z,10.43
2024-04-12T23:43:45.263Z,13.48
2024-04-12T23:48:48.879Z,13.93
2024-04-12T23:53:52.073Z,11.50
2024-04-12T23:58:55.165Z,12.02
